createdAt,value
2019-05-02T00:02:28.929Z,65.40
2019-05-02T00:04:57.680Z,65.20
2019-05-02T00:07:28.647Z,65.00
2019-05-02T00:09:59.593Z,65.20
2019-05-02T00:12:31.143Z,66.20
2019-05-02T00:15:04.048Z,65.70
2019-05-02T00:17:35.361Z,66.00
2019-05-02T00:20:10.120Z,66.20
2019-05-02T00:22:41.275Z,66.60
2019-05-02T00:25:15.956Z,66.60
2019-05-02T00:27:45.144Z,66.80
2019-05-02T00:30:17.392Z,66.60
2019-05-02T00:32:48.415Z,66.30
2019-05-02T00:35:19.286Z,66.20
2019-05-02T00:37:50.209Z,66.00
2019-05-02T00:40:25.709Z,66.10
2019-05-02T00:42:58.232Z,66.20
2019-05-02T00:45:26.635Z,66.00
2019-05-02T00:48:08.869Z,65.60
2019-05-02T00:50:40.871Z,65.60
2019-05-02T00:53:13.524Z,65.90
2019-05-02T00:55:44.620Z,66.20
2019-05-02T00:58:15.625Z,66.50
2019-05-02T01:01:05.005Z,66.80
2019-05-02T01:03:37.152Z,67.10
2019-05-02T01:06:13.976Z,67.20
2019-05-02T01:08:42.094Z,66.90
2019-05-02T01:11:14.103Z,66.80
2019-05-02T01:13:45.111Z,66.40
2019-05-02T01:16:19.177Z,66.50
2019-05-02T01:18:49.082Z,67.30
2019-05-02T01:21:20.074Z,66.40
2019-05-02T01:23:51.122Z,66.10
2019-05-02T01:26:29.288Z,65.60
2019-05-02T01:29:08.953Z,65.50
2019-05-02T01:31:56.624Z,64.80
2019-05-02T01:34:43.114Z,64.70
2019-05-02T01:37:35.668Z,64.90
2019-05-02T01:40:07.145Z,65.10
2019-05-02T01:42:39.981Z,65.20
2019-05-02T01:45:12.467Z,64.90
2019-05-02T01:47:43.533Z,64.60
2019-05-02T01:50:14.947Z,64.10
2019-05-02T01:52:45.811Z,62.90
2019-05-02T01:55:17.034Z,62.40
2019-05-02T01:57:49.321Z,62.10
2019-05-02T02:00:22.479Z,62.70
2019-05-02T02:02:53.345Z,61.60
2019-05-02T02:05:27.634Z,61.80
2019-05-02T02:07:58.887Z,62.10
2019-05-02T02:10:31.032Z,62.00
2019-05-02T02:13:04.911Z,61.60
2019-05-02T02:15:34.674Z,61.40
2019-05-02T02:18:06.043Z,61.40
2019-05-02T02:20:48.807Z,61.60
2019-05-02T02:23:27.799Z,61.80
2019-05-02T02:26:06.795Z,62.00
2019-05-02T02:28:36.563Z,62.10
2019-05-02T02:31:08.106Z,62.10
2019-05-02T02:33:40.789Z,62.00
2019-05-02T02:36:11.864Z,62.30
2019-05-02T02:38:42.875Z,62.40
2019-05-02T02:41:15.070Z,62.70
2019-05-02T02:43:54.775Z,62.90
2019-05-02T02:46:37.752Z,63.00
2019-05-02T02:49:04.579Z,62.70
2019-05-02T02:51:35.534Z,62.60
2019-05-02T02:54:07.959Z,63.00
2019-05-02T02:56:40.423Z,63.30
2019-05-02T02:59:11.682Z,63.80
2019-05-02T03:01:42.608Z,63.80
2019-05-02T03:04:13.600Z,63.90
2019-05-02T03:06:46.976Z,63.70
2019-05-02T03:09:20.362Z,63.30
2019-05-02T03:12:07.372Z,63.00
2019-05-02T03:14:47.092Z,62.90
2019-05-02T03:17:20.564Z,63.00
2019-05-02T03:19:48.604Z,63.30
2019-05-02T03:22:19.750Z,63.70
2019-05-02T03:24:50.837Z,64.20
2019-05-02T03:27:22.517Z,64.50
2019-05-02T03:29:53.676Z,64.70
2019-05-02T03:32:33.725Z,65.00
2019-05-02T03:35:00.957Z,65.60
2019-05-02T03:37:32.149Z,66.20
2019-05-02T03:40:03.165Z,66.50
2019-05-02T03:42:43.693Z,67.10
2019-05-02T03:45:07.600Z,67.50
2019-05-02T03:47:43.861Z,67.90
2019-05-02T03:50:11.669Z,68.50
2019-05-02T03:52:46.377Z,68.20
2019-05-02T03:55:16.523Z,67.50
2019-05-02T03:57:47.473Z,66.60
2019-05-02T04:00:23.758Z,66.20
2019-05-02T04:02:58.915Z,65.90
2019-05-02T04:05:26.091Z,66.00
2019-05-02T04:07:57.317Z,66.10
2019-05-02T04:11:22.274Z,66.50
2019-05-02T04:13:54.885Z,66.80
2019-05-02T04:16:28.224Z,67.00
2019-05-02T04:19:03.618Z,67.30
2019-05-02T04:21:36.008Z,68.40
2019-05-02T04:24:13.655Z,68.10
2019-05-02T04:26:52.672Z,68.60
2019-05-02T04:29:14.403Z,68.60
2019-05-02T04:31:45.444Z,69.00
2019-05-02T04:34:17.940Z,69.30
2019-05-02T04:37:00.177Z,69.30
2019-05-02T04:39:22.654Z,69.40
2019-05-02T04:41:53.933Z,69.40
2019-05-02T04:44:32.457Z,69.10
2019-05-02T04:46:59.971Z,69.10
2019-05-02T04:49:35.685Z,69.00
2019-05-02T04:52:07.793Z,68.20
2019-05-02T04:54:38.067Z,68.10
2019-05-02T04:57:09.124Z,68.20
2019-05-02T04:59:41.270Z,68.40
2019-05-02T05:02:12.193Z,68.60
2019-05-02T05:04:48.633Z,68.40
2019-05-02T05:07:17.708Z,68.00
2019-05-02T05:09:56.983Z,68.30
2019-05-02T05:12:21.123Z,67.80
2019-05-02T05:14:52.213Z,68.00
2019-05-02T05:17:25.105Z,68.10
2019-05-02T05:19:57.383Z,68.10
2019-05-02T05:22:28.754Z,67.90
2019-05-02T05:25:07.274Z,68.80
2019-05-02T05:27:38.241Z,68.10
2019-05-02T05:30:15.634Z,67.80
2019-05-02T05:32:47.782Z,67.60
2019-05-02T05:35:18.564Z,67.20
2019-05-02T05:37:53.107Z,67.50
2019-05-02T05:40:27.142Z,67.70
2019-05-02T05:42:57.231Z,67.60
2019-05-02T05:45:28.784Z,67.20
2019-05-02T05:48:01.329Z,67.20
2019-05-02T05:50:36.867Z,67.50
2019-05-02T05:53:05.380Z,67.40
2019-05-02T05:55:38.211Z,67.30
2019-05-02T05:58:15.344Z,67.20
2019-05-02T06:00:46.004Z,66.70
2019-05-02T06:03:15.463Z,66.50
2019-05-02T06:05:47.729Z,66.10
2019-05-02T06:08:19.955Z,65.30
2019-05-02T06:10:51.643Z,65.20
2019-05-02T06:13:22.726Z,65.30
2019-05-02T06:16:02.083Z,65.60
2019-05-02T06:18:28.354Z,65.50
2019-05-02T06:21:03.427Z,65.40
2019-05-02T06:23:36.356Z,65.90
2019-05-02T06:26:07.956Z,65.80
2019-05-02T06:28:41.662Z,65.80
2019-05-02T06:31:11.735Z,66.20
2019-05-02T06:33:43.414Z,66.20
2019-05-02T06:36:15.227Z,66.50
2019-05-02T06:38:46.775Z,66.60
2019-05-02T06:41:21.020Z,66.80
2019-05-02T06:43:51.414Z,67.00
2019-05-02T06:46:27.499Z,67.10
2019-05-02T06:49:04.735Z,67.00
2019-05-02T06:54:40.553Z,65.90
2019-05-02T06:57:11.724Z,65.30
2019-05-02T06:59:42.933Z,64.90
2019-05-02T07:02:15.203Z,64.50
2019-05-02T07:04:49.524Z,63.90
2019-05-02T07:07:25.094Z,63.00
2019-05-02T07:09:54.561Z,62.90
2019-05-02T07:12:26.023Z,62.80
2019-05-02T07:15:01.574Z,62.90
2019-05-02T07:17:38.485Z,62.50
2019-05-02T07:20:10.186Z,62.70
2019-05-02T07:22:45.465Z,62.70
2019-05-02T07:25:18.321Z,62.30
2019-05-02T07:27:51.331Z,62.40
2019-05-02T07:30:23.090Z,61.70
2019-05-02T07:32:56.279Z,61.80
2019-05-02T07:35:26.820Z,61.30
2019-05-02T07:37:59.588Z,61.40
2019-05-02T07:40:31.137Z,61.30
2019-05-02T07:43:02.873Z,61.00
2019-05-02T07:45:34.593Z,61.40
2019-05-02T07:48:06.094Z,61.30
2019-05-02T07:50:41.207Z,61.10
2019-05-02T07:53:14.143Z,60.80
2019-05-02T07:55:42.794Z,60.70
2019-05-02T07:58:14.196Z,60.40
2019-05-02T08:00:45.684Z,61.60
2019-05-02T08:03:17.279Z,60.40
2019-05-02T08:05:54.497Z,60.30
2019-05-02T08:08:29.861Z,60.00
2019-05-02T08:11:01.715Z,59.90
2019-05-02T08:13:33.767Z,60.20
2019-05-02T08:16:04.894Z,60.30
2019-05-02T08:18:36.056Z,60.70
2019-05-02T08:21:07.323Z,60.90
2019-05-02T08:23:39.080Z,60.20
2019-05-02T08:26:10.231Z,60.40
2019-05-02T08:28:55.577Z,60.70
2019-05-02T08:31:30.030Z,60.70
2019-05-02T08:34:00.020Z,61.20
2019-05-02T08:36:32.258Z,61.30
2019-05-02T08:39:05.429Z,60.70
2019-05-02T08:41:40.165Z,61.00
2019-05-02T08:44:16.840Z,61.20
2019-05-02T08:46:46.158Z,61.20
2019-05-02T08:49:18.855Z,60.90
2019-05-02T08:51:51.471Z,61.50
2019-05-02T08:54:23.172Z,61.70
2019-05-02T08:56:58.990Z,61.50
2019-05-02T08:59:27.684Z,61.50
2019-05-02T09:01:58.949Z,60.10
2019-05-02T09:04:30.687Z,60.30
2019-05-02T09:07:04.122Z,59.40
2019-05-02T09:09:35.256Z,59.50
2019-05-02T09:12:12.293Z,59.70
2019-05-02T09:14:39.964Z,59.90
2019-05-02T09:17:15.859Z,59.90
2019-05-02T09:19:59.438Z,59.70
2019-05-02T09:22:22.067Z,60.00
2019-05-02T09:24:54.355Z,59.70
2019-05-02T09:27:34.948Z,59.30
2019-05-02T09:30:12.061Z,58.10
2019-05-02T09:32:44.049Z,57.20
2019-05-02T09:35:17.622Z,57.30
2019-05-02T09:37:49.540Z,56.60
2019-05-02T09:40:23.434Z,56.20
2019-05-02T09:43:00.215Z,56.30
2019-05-02T09:45:37.007Z,56.40
2019-05-02T09:48:08.151Z,56.90
2019-05-02T09:50:45.012Z,57.00
2019-05-02T09:53:20.619Z,57.60
2019-05-02T09:55:55.743Z,57.90
2019-05-02T09:58:25.585Z,58.40
2019-05-02T10:01:03.958Z,58.60
2019-05-02T10:03:36.257Z,59.20
2019-05-02T10:06:13.887Z,59.70
2019-05-02T10:08:46.301Z,59.30
2019-05-02T10:11:23.880Z,59.00
2019-05-02T10:13:55.433Z,59.60
2019-05-02T10:16:31.973Z,58.90
2019-05-02T10:19:09.462Z,57.20
2019-05-02T10:22:31.072Z,56.20
2019-05-02T10:25:08.494Z,55.90
2019-05-02T10:27:45.945Z,55.50
2019-05-02T10:30:18.131Z,55.50
2019-05-02T10:32:52.927Z,54.50
2019-05-02T10:35:34.080Z,55.50
2019-05-02T10:41:01.331Z,55.90
2019-05-02T10:43:34.239Z,56.20
2019-05-02T10:46:23.042Z,57.30
2019-05-02T10:49:01.975Z,58.00
2019-05-02T10:51:34.669Z,58.70
2019-05-02T10:54:07.065Z,59.00
2019-05-02T10:56:39.757Z,58.30
2019-05-02T10:59:12.267Z,57.80
2019-05-02T11:02:06.585Z,57.30
2019-05-02T11:04:43.623Z,56.50
2019-05-02T11:07:16.977Z,56.90
2019-05-02T11:09:49.080Z,56.70
2019-05-02T11:12:44.506Z,56.70
2019-05-02T11:15:33.031Z,56.90
2019-05-02T11:18:04.691Z,57.50
2019-05-02T11:20:35.977Z,58.40
2019-05-02T11:23:07.484Z,58.90
2019-05-02T11:25:38.751Z,59.40
2019-05-02T11:28:09.938Z,59.60
2019-05-02T11:30:42.050Z,59.80
2019-05-02T11:33:32.466Z,59.30
2019-05-02T11:36:03.512Z,58.90
2019-05-02T11:38:40.894Z,59.30
2019-05-02T11:41:22.260Z,58.30
2019-05-02T11:43:55.860Z,59.00
2019-05-02T11:46:26.999Z,59.20
2019-05-02T11:49:02.414Z,59.50
2019-05-02T11:51:33.924Z,58.80
2019-05-02T11:54:09.203Z,56.90
2019-05-02T11:56:41.104Z,56.10
2019-05-02T11:59:14.422Z,54.50
2019-05-02T12:01:57.637Z,54.10
2019-05-02T12:04:21.526Z,54.10
2019-05-02T12:07:01.142Z,54.20
2019-05-02T12:09:25.680Z,54.90
2019-05-02T12:11:59.423Z,55.40
2019-05-02T12:14:32.875Z,56.10
2019-05-02T12:17:03.137Z,56.30
2019-05-02T12:19:34.325Z,56.70
2019-05-02T12:22:07.274Z,56.90
2019-05-02T12:24:40.927Z,56.80
2019-05-02T12:27:11.785Z,57.00
2019-05-02T12:29:42.912Z,57.60
2019-05-02T12:32:19.179Z,58.20
2019-05-02T12:34:50.220Z,58.70
2019-05-02T12:37:21.920Z,58.00
2019-05-02T12:39:53.231Z,57.70
2019-05-02T12:42:25.383Z,57.40
2019-05-02T12:44:57.409Z,58.10
2019-05-02T12:47:28.699Z,58.20
2019-05-02T12:49:59.642Z,57.00
2019-05-02T12:52:32.054Z,57.00
2019-05-02T12:55:03.948Z,56.20
2019-05-02T12:57:35.060Z,55.90
2019-05-02T13:00:07.387Z,56.10
2019-05-02T13:02:46.576Z,56.60
2019-05-02T13:05:17.761Z,56.30
2019-05-02T13:07:53.564Z,55.40
2019-05-02T13:10:32.700Z,53.80
2019-05-02T13:13:04.644Z,53.30
2019-05-02T13:15:35.978Z,53.00
2019-05-02T13:18:07.426Z,53.40
2019-05-02T13:20:41.736Z,54.30
2019-05-02T13:23:37.046Z,54.70
2019-05-02T13:26:18.464Z,55.70
2019-05-02T13:28:42.338Z,57.40
2019-05-02T13:31:32.055Z,58.50
2019-05-02T13:34:18.623Z,59.40
2019-05-02T13:36:51.934Z,59.40
2019-05-02T13:39:42.850Z,59.20
2019-05-02T13:42:14.786Z,58.30
2019-05-02T13:47:42.778Z,57.60
2019-05-02T13:50:22.187Z,57.00
2019-05-02T13:53:07.199Z,56.30
2019-05-02T13:55:57.846Z,56.60
2019-05-02T13:58:32.673Z,56.50
2019-05-02T14:01:03.433Z,55.80
2019-05-02T14:03:35.216Z,55.90
2019-05-02T14:06:07.158Z,55.30
2019-05-02T14:08:56.181Z,54.80
2019-05-02T14:11:48.993Z,53.40
2019-05-02T14:14:20.371Z,52.20
2019-05-02T14:16:53.021Z,51.70
2019-05-02T14:19:24.147Z,51.00
2019-05-02T14:21:55.259Z,48.80
2019-05-02T14:24:26.409Z,48.40
2019-05-02T14:26:58.136Z,49.00
2019-05-02T14:29:29.847Z,48.10
2019-05-02T14:32:02.703Z,47.90
2019-05-02T14:35:05.852Z,48.20
2019-05-02T14:37:38.384Z,48.80
2019-05-02T14:40:26.797Z,48.90
2019-05-02T14:43:05.262Z,49.40
2019-05-02T14:45:43.761Z,49.70
2019-05-02T14:48:21.390Z,49.30
2019-05-02T14:50:52.098Z,49.50
2019-05-02T14:53:25.500Z,49.80
2019-05-02T14:56:04.393Z,50.30
2019-05-02T14:58:32.510Z,50.50
2019-05-02T15:01:04.107Z,50.80
2019-05-02T15:03:35.688Z,51.40
2019-05-02T15:06:07.268Z,51.50
2019-05-02T15:08:41.952Z,51.80
2019-05-02T15:11:12.532Z,51.90
2019-05-02T15:13:44.173Z,51.00
2019-05-02T15:16:17.666Z,49.10
2019-05-02T15:18:52.505Z,47.90
2019-05-02T15:21:22.865Z,47.40
2019-05-02T15:23:57.775Z,47.50
2019-05-02T15:26:31.309Z,47.00
2019-05-02T15:29:01.791Z,48.00
2019-05-02T15:31:34.395Z,48.90
2019-05-02T15:34:35.522Z,49.10
2019-05-02T15:37:03.235Z,49.60
2019-05-02T15:42:12.094Z,48.90
2019-05-02T15:44:43.517Z,49.20
2019-05-02T15:47:37.105Z,48.90
2019-05-02T15:50:22.009Z,48.40
2019-05-02T15:53:03.164Z,48.90
2019-05-02T16:01:27.676Z,49.90
2019-05-02T16:04:01.607Z,49.50
2019-05-02T16:06:33.994Z,48.50
2019-05-02T16:09:07.169Z,48.60
2019-05-02T16:11:40.482Z,48.20
2019-05-02T16:14:12.784Z,48.50
2019-05-02T16:16:45.279Z,48.60
2019-05-02T16:19:27.132Z,49.20
2019-05-02T16:22:11.526Z,49.40
2019-05-02T16:24:43.866Z,50.20
2019-05-02T16:27:23.724Z,50.80
2019-05-02T16:29:58.433Z,50.70
2019-05-02T16:32:37.848Z,51.30
2019-05-02T16:35:15.296Z,51.30
2019-05-02T16:37:46.670Z,51.70
2019-05-02T16:40:23.913Z,51.90
2019-05-02T16:42:52.753Z,52.40
2019-05-02T16:45:24.064Z,52.70
2019-05-02T16:48:00.299Z,52.70
2019-05-02T16:50:32.983Z,53.00
2019-05-02T16:53:02.284Z,53.20
2019-05-02T16:55:34.210Z,53.60
2019-05-02T16:58:07.254Z,53.40
2019-05-02T17:00:42.580Z,53.10
2019-05-02T17:03:17.409Z,53.30
2019-05-02T17:05:48.042Z,53.30
2019-05-02T17:08:44.506Z,53.70
2019-05-02T17:11:20.340Z,54.20
2019-05-02T17:13:52.755Z,54.10
2019-05-02T17:16:24.140Z,54.50
2019-05-02T17:18:57.318Z,54.80
2019-05-02T17:21:33.733Z,55.10
2019-05-02T17:24:02.869Z,55.30
2019-05-02T17:26:34.301Z,55.80
2019-05-02T17:29:07.506Z,55.60
2019-05-02T17:31:39.572Z,55.70
2019-05-02T17:34:14.796Z,55.80
2019-05-02T17:36:46.711Z,55.90
2019-05-02T17:39:22.149Z,56.00
2019-05-02T17:41:54.146Z,56.20
2019-05-02T17:44:26.090Z,56.30
2019-05-02T17:47:01.502Z,56.40
2019-05-02T17:49:36.599Z,56.60
2019-05-02T17:52:33.521Z,56.60
2019-05-02T17:55:06.763Z,56.70
2019-05-02T17:57:37.741Z,56.60
2019-05-02T18:00:16.930Z,56.70
2019-05-02T18:02:51.844Z,57.00
2019-05-02T18:05:21.727Z,57.30
2019-05-02T18:07:52.764Z,57.80
2019-05-02T18:10:25.123Z,58.10
2019-05-02T18:12:59.755Z,58.70
2019-05-02T18:15:34.765Z,58.90
2019-05-02T18:18:06.536Z,59.50
2019-05-02T18:20:37.137Z,59.80
2019-05-02T18:23:09.347Z,60.40
2019-05-02T18:25:40.928Z,60.40
2019-05-02T18:28:14.036Z,60.60
2019-05-02T18:30:44.944Z,60.40
2019-05-02T18:33:15.960Z,60.80
2019-05-02T18:35:47.353Z,59.70
2019-05-02T18:38:20.911Z,59.60
2019-05-02T18:40:52.138Z,59.50
2019-05-02T18:43:23.693Z,59.10
2019-05-02T18:45:58.190Z,58.60
2019-05-02T18:48:27.599Z,58.40
2019-05-02T18:50:59.120Z,58.10
2019-05-02T18:53:30.061Z,58.10
2019-05-02T18:56:03.460Z,58.20
2019-05-02T18:58:36.340Z,58.40
2019-05-02T19:01:08.597Z,58.20
2019-05-02T19:03:39.751Z,58.20
2019-05-02T19:06:11.703Z,58.40
2019-05-02T19:08:49.615Z,58.50
2019-05-02T19:11:19.811Z,58.50
2019-05-02T19:13:52.519Z,58.40
2019-05-02T19:16:27.258Z,58.40
2019-05-02T19:18:57.644Z,58.50
2019-05-02T19:21:32.102Z,58.30
2019-05-02T19:24:02.406Z,58.20
2019-05-02T19:26:33.769Z,58.30
2019-05-02T19:29:33.153Z,58.10
2019-05-02T19:32:06.594Z,58.70
2019-05-02T19:34:41.797Z,58.10
2019-05-02T19:37:13.348Z,58.00
2019-05-02T19:39:48.720Z,58.00
2019-05-02T19:42:22.649Z,58.20
2019-05-02T19:44:54.378Z,58.50
2019-05-02T19:47:25.510Z,59.00
2019-05-02T19:49:56.867Z,59.30
2019-05-02T19:52:28.558Z,60.00
2019-05-02T19:55:00.610Z,61.10
2019-05-02T19:57:32.423Z,61.60
2019-05-02T20:00:06.552Z,61.90
2019-05-02T20:02:42.241Z,62.20
2019-05-02T20:05:11.824Z,62.50
2019-05-02T20:07:43.823Z,62.50
2019-05-02T20:10:17.893Z,62.20
2019-05-02T20:12:50.461Z,61.80
2019-05-02T20:15:26.814Z,61.50
2019-05-02T20:18:00.423Z,61.60
2019-05-02T20:21:25.967Z,61.40
2019-05-02T20:23:52.637Z,61.30
2019-05-02T20:26:23.926Z,60.90
2019-05-02T20:28:55.017Z,61.20
2019-05-02T20:31:26.690Z,61.30
2019-05-02T20:33:58.454Z,61.30
2019-05-02T20:36:31.982Z,60.90
2019-05-02T20:39:03.632Z,61.40
2019-05-02T20:41:36.439Z,60.30
2019-05-02T20:44:08.489Z,60.10
2019-05-02T20:46:39.656Z,59.80
2019-05-02T20:49:12.614Z,59.70
2019-05-02T20:51:45.050Z,59.60
2019-05-02T20:54:16.455Z,59.80
2019-05-02T20:56:49.194Z,59.90
2019-05-02T20:59:21.829Z,60.00
2019-05-02T21:01:53.646Z,60.00
2019-05-02T21:04:25.320Z,60.30
2019-05-02T21:07:10.839Z,60.30
2019-05-02T21:09:56.198Z,60.70
2019-05-02T21:12:28.998Z,60.80
2019-05-02T21:15:01.741Z,61.10
2019-05-02T21:17:34.997Z,61.40
2019-05-02T21:20:07.838Z,61.70
2019-05-02T21:22:39.357Z,61.80
2019-05-02T21:25:12.861Z,62.00
2019-05-02T21:27:44.038Z,62.20
2019-05-02T21:30:17.836Z,62.40
2019-05-02T21:32:49.726Z,62.30
2019-05-02T21:35:22.387Z,62.40
2019-05-02T21:37:53.968Z,62.30
2019-05-02T21:40:25.936Z,62.40
2019-05-02T21:42:57.677Z,62.20
2019-05-02T21:45:29.286Z,62.30
2019-05-02T21:48:02.301Z,62.00
2019-05-02T21:50:51.556Z,61.80
2019-05-02T21:53:58.468Z,61.50
2019-05-02T21:56:45.805Z,61.30
2019-05-02T21:59:18.398Z,60.60
2019-05-02T22:01:55.247Z,60.20
2019-05-02T22:04:27.162Z,60.00
2019-05-02T22:06:58.877Z,60.00
2019-05-02T22:09:32.181Z,59.80
2019-05-02T22:12:03.878Z,59.80
2019-05-02T22:14:35.598Z,59.60
2019-05-02T22:17:07.438Z,59.50
2019-05-02T22:19:39.000Z,59.60
2019-05-02T22:22:12.218Z,59.80
2019-05-02T22:24:43.956Z,59.80
2019-05-02T22:27:15.637Z,59.60
2019-05-02T22:29:47.076Z,59.60
2019-05-02T22:32:18.757Z,59.60
2019-05-02T22:34:52.762Z,59.80
2019-05-02T22:37:24.582Z,59.80
2019-05-02T22:40:03.629Z,59.80
2019-05-02T22:42:32.866Z,59.90
2019-05-02T22:45:04.782Z,59.70
2019-05-02T22:47:35.966Z,59.40
2019-05-02T22:50:07.392Z,59.30
2019-05-02T22:52:38.474Z,59.30
2019-05-02T22:55:09.524Z,59.10
2019-05-02T22:57:42.065Z,59.20
2019-05-02T23:00:13.396Z,59.10
2019-05-02T23:02:44.344Z,59.30
2019-05-02T23:05:15.603Z,59.30
2019-05-02T23:07:46.782Z,58.90
2019-05-02T23:10:17.866Z,58.60
2019-05-02T23:12:48.928Z,58.70
2019-05-02T23:15:21.685Z,58.70
2019-05-02T23:17:52.656Z,58.60
2019-05-02T23:20:24.444Z,58.80
2019-05-02T23:22:55.576Z,58.50
2019-05-02T23:25:44.309Z,58.10
2019-05-02T23:28:22.163Z,58.20
2019-05-02T23:30:55.148Z,58.20
2019-05-02T23:33:28.477Z,58.20
2019-05-02T23:35:59.316Z,58.20
2019-05-02T23:38:32.200Z,58.30
2019-05-02T23:41:02.896Z,58.00
2019-05-02T23:43:33.970Z,58.00
2019-05-02T23:46:05.162Z,57.80
2019-05-02T23:48:36.074Z,57.30
2019-05-02T23:51:07.159Z,57.30
2019-05-02T23:53:38.104Z,57.00
2019-05-02T23:56:09.178Z,57.00
2019-05-02T23:58:40.221Z,57.00
